X  Fermer Données météorologiques d'aviation de Metar     LFBE Bergerac-Roumanière Airport
Température
1°C Température
0°C Point de rosée
93% Humidité



Vent
2 KM/H
1 MPH
0 M/S
1 KTS



30°
NNE
Conditions actuelles

Patches Of Brouillard Patches Of Brouillard
Pression 1016.92 (hPa) - 30.03 (inHg)
Visibilité 1.1 (mile) - 1.8 (km)
Aéroport
Code de l'aéroport LFBE

Emplacement: Bergerac-Roumanière Airport
Distance: 26 (km)

Metar:
LFBE 070030Z AUTO 03001KT 1800 0600 R27/1700D BCFG NSC 01/00 Q1017

Temps: 07-12-2022 01:30 CET